sensor_id;sensor_type;location;lat;lon;timestamp;P1;durP1;ratioP1;P2;durP2;ratioP2
23782;SDS011;12071;50.850;4.446;2023-08-21T00:01:32;6.18;;;1.50;;
23782;SDS011;12071;50.850;4.446;2023-08-21T00:03:57;4.85;;;1.60;;
23782;SDS011;12071;50.850;4.446;2023-08-21T00:06:23;6.93;;;2.08;;
23782;SDS011;12071;50.850;4.446;2023-08-21T00:08:49;7.63;;;2.47;;
23782;SDS011;12071;50.850;4.446;2023-08-21T00:11:14;8.05;;;1.65;;
23782;SDS011;12071;50.850;4.446;2023-08-21T00:13:40;4.38;;;1.73;;
23782;SDS011;12071;50.850;4.446;2023-08-21T00:16:09;6.35;;;1.95;;
23782;SDS011;12071;50.850;4.446;2023-08-21T00:18:36;5.03;;;1.88;;
23782;SDS011;12071;50.850;4.446;2023-08-21T00:21:01;5.35;;;1.60;;
23782;SDS011;12071;50.850;4.446;2023-08-21T00:23:27;8.77;;;1.63;;
23782;SDS011;12071;50.850;4.446;2023-08-21T00:25:52;6.30;;;1.90;;
23782;SDS011;12071;50.850;4.446;2023-08-21T00:28:18;5.65;;;1.67;;
23782;SDS011;12071;50.850;4.446;2023-08-21T00:30:44;10.55;;;2.10;;
23782;SDS011;12071;50.850;4.446;2023-08-21T00:33:09;5.03;;;1.55;;
23782;SDS011;12071;50.850;4.446;2023-08-21T00:35:35;7.68;;;1.70;;
23782;SDS011;12071;50.850;4.446;2023-08-21T00:38:01;8.80;;;1.75;;
23782;SDS011;12071;50.850;4.446;2023-08-21T00:40:27;7.40;;;2.13;;
23782;SDS011;12071;50.850;4.446;2023-08-21T00:42:53;8.73;;;2.15;;
23782;SDS011;12071;50.850;4.446;2023-08-21T00:45:19;5.18;;;1.52;;
23782;SDS011;12071;50.850;4.446;2023-08-21T00:47:45;7.15;;;2.00;;
23782;SDS011;12071;50.850;4.446;2023-08-21T00:50:11;9.50;;;1.85;;
23782;SDS011;12071;50.850;4.446;2023-08-21T00:52:38;6.05;;;1.85;;
23782;SDS011;12071;50.850;4.446;2023-08-21T00:55:06;5.38;;;1.90;;
23782;SDS011;12071;50.850;4.446;2023-08-21T00:57:34;7.55;;;2.05;;
23782;SDS011;12071;50.850;4.446;2023-08-21T01:00:00;7.90;;;2.47;;
23782;SDS011;12071;50.850;4.446;2023-08-21T01:02:26;4.75;;;1.80;;
23782;SDS011;12071;50.850;4.446;2023-08-21T01:04:52;9.23;;;1.75;;
23782;SDS011;12071;50.850;4.446;2023-08-21T01:07:18;6.72;;;1.63;;
23782;SDS011;12071;50.850;4.446;2023-08-21T01:10:00;7.82;;;1.80;;
23782;SDS011;12071;50.850;4.446;2023-08-21T01:12:48;7.60;;;2.10;;
23782;SDS011;12071;50.850;4.446;2023-08-21T01:15:21;13.25;;;2.22;;
23782;SDS011;12071;50.850;4.446;2023-08-21T01:17:47;9.38;;;1.98;;
23782;SDS011;12071;50.850;4.446;2023-08-21T01:20:15;4.55;;;2.08;;
23782;SDS011;12071;50.850;4.446;2023-08-21T01:22:41;7.25;;;1.77;;
23782;SDS011;12071;50.850;4.446;2023-08-21T01:25:11;6.55;;;1.70;;
23782;SDS011;12071;50.850;4.446;2023-08-21T01:27:42;6.43;;;1.80;;
23782;SDS011;12071;50.850;4.446;2023-08-21T01:30:09;8.40;;;2.03;;
23782;SDS011;12071;50.850;4.446;2023-08-21T01:33:09;5.03;;;1.73;;
23782;SDS011;12071;50.850;4.446;2023-08-21T01:35:31;7.90;;;2.45;;
23782;SDS011;12071;50.850;4.446;2023-08-21T01:37:59;9.45;;;1.88;;
23782;SDS011;12071;50.850;4.446;2023-08-21T01:40:26;5.40;;;2.00;;
23782;SDS011;12071;50.850;4.446;2023-08-21T01:42:55;3.85;;;1.60;;
23782;SDS011;12071;50.850;4.446;2023-08-21T01:45:22;7.80;;;2.40;;
23782;SDS011;12071;50.850;4.446;2023-08-21T01:47:47;7.32;;;2.03;;
23782;SDS011;12071;50.850;4.446;2023-08-21T01:50:13;8.25;;;2.08;;
23782;SDS011;12071;50.850;4.446;2023-08-21T01:52:39;8.02;;;2.20;;
23782;SDS011;12071;50.850;4.446;2023-08-21T01:55:05;8.48;;;2.35;;
23782;SDS011;12071;50.850;4.446;2023-08-21T01:57:33;9.35;;;2.50;;
23782;SDS011;12071;50.850;4.446;2023-08-21T01:59:59;11.18;;;2.03;;
23782;SDS011;12071;50.850;4.446;2023-08-21T02:02:25;11.05;;;1.85;;
23782;SDS011;12071;50.850;4.446;2023-08-21T02:04:50;6.03;;;1.80;;
23782;SDS011;12071;50.850;4.446;2023-08-21T02:07:18;4.50;;;1.73;;
23782;SDS011;12071;50.850;4.446;2023-08-21T02:09:43;7.80;;;2.20;;
23782;SDS011;12071;50.850;4.446;2023-08-21T02:12:09;7.75;;;1.92;;
23782;SDS011;12071;50.850;4.446;2023-08-21T02:14:35;6.70;;;1.90;;
23782;SDS011;12071;50.850;4.446;2023-08-21T02:17:00;9.65;;;2.42;;
23782;SDS011;12071;50.850;4.446;2023-08-21T02:19:28;6.22;;;1.75;;
23782;SDS011;12071;50.850;4.446;2023-08-21T02:21:54;11.18;;;1.92;;
23782;SDS011;12071;50.850;4.446;2023-08-21T02:24:20;9.05;;;2.00;;
23782;SDS011;12071;50.850;4.446;2023-08-21T02:26:46;8.43;;;2.33;;
23782;SDS011;12071;50.850;4.446;2023-08-21T02:29:13;9.45;;;2.38;;
23782;SDS011;12071;50.850;4.446;2023-08-21T02:31:38;11.45;;;2.10;;
23782;SDS011;12071;50.850;4.446;2023-08-21T02:34:04;9.02;;;2.05;;
23782;SDS011;12071;50.850;4.446;2023-08-21T02:36:30;6.90;;;2.13;;
23782;SDS011;12071;50.850;4.446;2023-08-21T02:38:56;7.70;;;2.17;;
23782;SDS011;12071;50.850;4.446;2023-08-21T02:41:23;6.28;;;2.00;;
23782;SDS011;12071;50.850;4.446;2023-08-21T02:43:49;10.00;;;2.97;;
23782;SDS011;12071;50.850;4.446;2023-08-21T02:46:15;5.50;;;2.00;;
23782;SDS011;12071;50.850;4.446;2023-08-21T02:48:41;5.57;;;2.20;;
23782;SDS011;12071;50.850;4.446;2023-08-21T02:51:07;9.85;;;2.40;;
23782;SDS011;12071;50.850;4.446;2023-08-21T02:53:34;7.53;;;2.22;;
23782;SDS011;12071;50.850;4.446;2023-08-21T02:55:59;9.80;;;1.98;;
23782;SDS011;12071;50.850;4.446;2023-08-21T02:58:28;9.85;;;2.00;;
23782;SDS011;12071;50.850;4.446;2023-08-21T03:00:54;8.77;;;2.00;;
23782;SDS011;12071;50.850;4.446;2023-08-21T03:03:22;6.97;;;2.13;;
23782;SDS011;12071;50.850;4.446;2023-08-21T03:05:48;16.60;;;2.65;;
23782;SDS011;12071;50.850;4.446;2023-08-21T03:08:13;6.53;;;2.00;;
23782;SDS011;12071;50.850;4.446;2023-08-21T03:10:39;8.70;;;2.00;;
23782;SDS011;12071;50.850;4.446;2023-08-21T03:13:05;5.75;;;1.92;;
23782;SDS011;12071;50.850;4.446;2023-08-21T03:15:30;6.30;;;1.83;;
23782;SDS011;12071;50.850;4.446;2023-08-21T03:17:56;6.30;;;2.08;;
23782;SDS011;12071;50.850;4.446;2023-08-21T03:20:22;7.43;;;2.30;;
23782;SDS011;12071;50.850;4.446;2023-08-21T03:22:47;6.22;;;1.88;;
23782;SDS011;12071;50.850;4.446;2023-08-21T03:25:13;5.25;;;1.88;;
23782;SDS011;12071;50.850;4.446;2023-08-21T03:27:39;7.28;;;2.50;;
23782;SDS011;12071;50.850;4.446;2023-08-21T03:30:05;8.20;;;2.63;;
23782;SDS011;12071;50.850;4.446;2023-08-21T03:32:32;7.68;;;2.22;;
23782;SDS011;12071;50.850;4.446;2023-08-21T03:34:58;5.88;;;2.00;;
23782;SDS011;12071;50.850;4.446;2023-08-21T03:37:24;8.00;;;2.30;;
23782;SDS011;12071;50.850;4.446;2023-08-21T03:39:49;5.65;;;2.03;;
23782;SDS011;12071;50.850;4.446;2023-08-21T03:42:15;8.10;;;2.03;;
23782;SDS011;12071;50.850;4.446;2023-08-21T03:44:41;5.25;;;1.98;;
23782;SDS011;12071;50.850;4.446;2023-08-21T03:47:06;8.73;;;2.28;;
23782;SDS011;12071;50.850;4.446;2023-08-21T03:49:33;9.25;;;1.90;;
23782;SDS011;12071;50.850;4.446;2023-08-21T03:52:02;9.95;;;1.98;;
23782;SDS011;12071;50.850;4.446;2023-08-21T03:54:28;10.50;;;2.25;;
23782;SDS011;12071;50.850;4.446;2023-08-21T03:56:54;7.50;;;2.55;;
23782;SDS011;12071;50.850;4.446;2023-08-21T03:59:20;11.38;;;2.40;;
23782;SDS011;12071;50.850;4.446;2023-08-21T04:01:45;8.55;;;2.50;;
23782;SDS011;12071;50.850;4.446;2023-08-21T04:04:11;11.55;;;2.80;;
23782;SDS011;12071;50.850;4.446;2023-08-21T04:06:36;8.82;;;2.40;;
23782;SDS011;12071;50.850;4.446;2023-08-21T04:09:02;9.88;;;2.78;;
23782;SDS011;12071;50.850;4.446;2023-08-21T04:11:31;5.18;;;2.03;;
23782;SDS011;12071;50.850;4.446;2023-08-21T04:13:57;5.72;;;2.10;;
23782;SDS011;12071;50.850;4.446;2023-08-21T04:16:24;11.00;;;2.97;;
23782;SDS011;12071;50.850;4.446;2023-08-21T04:18:49;7.43;;;2.22;;
23782;SDS011;12071;50.850;4.446;2023-08-21T04:21:17;8.32;;;2.65;;
23782;SDS011;12071;50.850;4.446;2023-08-21T04:23:43;8.10;;;2.25;;
23782;SDS011;12071;50.850;4.446;2023-08-21T04:26:10;9.43;;;2.35;;
23782;SDS011;12071;50.850;4.446;2023-08-21T04:28:36;8.93;;;2.80;;
23782;SDS011;12071;50.850;4.446;2023-08-21T04:31:05;8.10;;;2.53;;
23782;SDS011;12071;50.850;4.446;2023-08-21T04:33:32;8.05;;;2.55;;
23782;SDS011;12071;50.850;4.446;2023-08-21T04:35:58;10.07;;;3.63;;
23782;SDS011;12071;50.850;4.446;2023-08-21T04:38:24;12.70;;;3.20;;
23782;SDS011;12071;50.850;4.446;2023-08-21T04:40:50;6.43;;;2.85;;
23782;SDS011;12071;50.850;4.446;2023-08-21T04:43:16;9.55;;;2.88;;
23782;SDS011;12071;50.850;4.446;2023-08-21T04:45:49;8.18;;;2.30;;
23782;SDS011;12071;50.850;4.446;2023-08-21T04:48:17;9.00;;;2.53;;
23782;SDS011;12071;50.850;4.446;2023-08-21T04:50:45;9.70;;;2.60;;
23782;SDS011;12071;50.850;4.446;2023-08-21T04:53:12;12.18;;;2.78;;
23782;SDS011;12071;50.850;4.446;2023-08-21T04:55:39;9.13;;;2.47;;
23782;SDS011;12071;50.850;4.446;2023-08-21T04:58:06;10.13;;;2.17;;
23782;SDS011;12071;50.850;4.446;2023-08-21T05:00:33;7.38;;;2.30;;
23782;SDS011;12071;50.850;4.446;2023-08-21T05:02:58;7.72;;;2.30;;
23782;SDS011;12071;50.850;4.446;2023-08-21T05:05:24;8.25;;;2.30;;
23782;SDS011;12071;50.850;4.446;2023-08-21T05:07:52;7.22;;;2.40;;
23782;SDS011;12071;50.850;4.446;2023-08-21T05:10:18;7.40;;;2.10;;
23782;SDS011;12071;50.850;4.446;2023-08-21T05:12:44;9.82;;;3.15;;
23782;SDS011;12071;50.850;4.446;2023-08-21T05:15:10;13.45;;;3.45;;
23782;SDS011;12071;50.850;4.446;2023-08-21T05:17:36;7.90;;;2.75;;
23782;SDS011;12071;50.850;4.446;2023-08-21T05:20:02;8.75;;;3.55;;
23782;SDS011;12071;50.850;4.446;2023-08-21T05:22:28;8.70;;;2.85;;
23782;SDS011;12071;50.850;4.446;2023-08-21T05:24:54;13.48;;;3.72;;
23782;SDS011;12071;50.850;4.446;2023-08-21T05:27:19;8.30;;;3.15;;
23782;SDS011;12071;50.850;4.446;2023-08-21T05:29:45;11.65;;;3.10;;
23782;SDS011;12071;50.850;4.446;2023-08-21T05:32:11;9.68;;;3.13;;
23782;SDS011;12071;50.850;4.446;2023-08-21T05:34:37;10.20;;;3.15;;
23782;SDS011;12071;50.850;4.446;2023-08-21T05:37:02;8.05;;;2.92;;
23782;SDS011;12071;50.850;4.446;2023-08-21T05:39:28;10.02;;;3.42;;
23782;SDS011;12071;50.850;4.446;2023-08-21T05:41:54;10.65;;;3.70;;
23782;SDS011;12071;50.850;4.446;2023-08-21T05:44:20;12.20;;;4.80;;
23782;SDS011;12071;50.850;4.446;2023-08-21T05:46:45;9.40;;;3.70;;
23782;SDS011;12071;50.850;4.446;2023-08-21T05:49:12;9.48;;;3.70;;
23782;SDS011;12071;50.850;4.446;2023-08-21T05:51:38;7.50;;;3.10;;
23782;SDS011;12071;50.850;4.446;2023-08-21T05:54:03;10.02;;;3.05;;
23782;SDS011;12071;50.850;4.446;2023-08-21T05:56:29;10.27;;;3.33;;
23782;SDS011;12071;50.850;4.446;2023-08-21T05:58:55;10.75;;;3.13;;
23782;SDS011;12071;50.850;4.446;2023-08-21T06:01:20;10.00;;;2.95;;
23782;SDS011;12071;50.850;4.446;2023-08-21T06:03:46;10.68;;;3.13;;
23782;SDS011;12071;50.850;4.446;2023-08-21T06:06:11;8.48;;;2.75;;
23782;SDS011;12071;50.850;4.446;2023-08-21T06:08:37;7.97;;;2.63;;
23782;SDS011;12071;50.850;4.446;2023-08-21T06:11:03;11.27;;;2.80;;
23782;SDS011;12071;50.850;4.446;2023-08-21T06:13:28;8.02;;;2.80;;
23782;SDS011;12071;50.850;4.446;2023-08-21T06:15:54;8.07;;;2.63;;
23782;SDS011;12071;50.850;4.446;2023-08-21T06:18:20;8.48;;;2.50;;
23782;SDS011;12071;50.850;4.446;2023-08-21T06:20:47;9.75;;;2.90;;
23782;SDS011;12071;50.850;4.446;2023-08-21T06:23:13;10.60;;;2.85;;
23782;SDS011;12071;50.850;4.446;2023-08-21T06:25:39;9.57;;;2.88;;
23782;SDS011;12071;50.850;4.446;2023-08-21T06:28:04;8.75;;;2.70;;
23782;SDS011;12071;50.850;4.446;2023-08-21T06:30:30;7.50;;;2.65;;
23782;SDS011;12071;50.850;4.446;2023-08-21T06:32:57;10.73;;;3.35;;
23782;SDS011;12071;50.850;4.446;2023-08-21T06:35:22;8.05;;;2.58;;
23782;SDS011;12071;50.850;4.446;2023-08-21T06:37:48;9.75;;;3.08;;
23782;SDS011;12071;50.850;4.446;2023-08-21T06:40:16;8.60;;;2.60;;
23782;SDS011;12071;50.850;4.446;2023-08-21T06:42:42;9.40;;;3.13;;
23782;SDS011;12071;50.850;4.446;2023-08-21T06:45:08;12.98;;;3.22;;
23782;SDS011;12071;50.850;4.446;2023-08-21T06:47:34;10.15;;;3.00;;
23782;SDS011;12071;50.850;4.446;2023-08-21T06:50:01;9.50;;;2.95;;
23782;SDS011;12071;50.850;4.446;2023-08-21T06:52:26;18.80;;;3.78;;
23782;SDS011;12071;50.850;4.446;2023-08-21T06:54:52;17.25;;;3.83;;
23782;SDS011;12071;50.850;4.446;2023-08-21T06:57:18;11.93;;;3.13;;
23782;SDS011;12071;50.850;4.446;2023-08-21T06:59:44;27.98;;;4.15;;
23782;SDS011;12071;50.850;4.446;2023-08-21T07:02:10;16.83;;;3.55;;
23782;SDS011;12071;50.850;4.446;2023-08-21T07:04:35;20.80;;;3.95;;
23782;SDS011;12071;50.850;4.446;2023-08-21T07:07:01;23.98;;;4.43;;
23782;SDS011;12071;50.850;4.446;2023-08-21T07:09:28;15.07;;;4.15;;
23782;SDS011;12071;50.850;4.446;2023-08-21T07:11:53;14.93;;;4.28;;
23782;SDS011;12071;50.850;4.446;2023-08-21T07:14:20;12.63;;;3.85;;
23782;SDS011;12071;50.850;4.446;2023-08-21T07:16:45;13.00;;;3.42;;
23782;SDS011;12071;50.850;4.446;2023-08-21T07:19:11;11.48;;;3.30;;
23782;SDS011;12071;50.850;4.446;2023-08-21T07:21:37;17.85;;;3.70;;
23782;SDS011;12071;50.850;4.446;2023-08-21T07:24:03;13.38;;;4.22;;
23782;SDS011;12071;50.850;4.446;2023-08-21T07:26:29;12.80;;;3.67;;
23782;SDS011;12071;50.850;4.446;2023-08-21T07:28:55;17.95;;;3.58;;
23782;SDS011;12071;50.850;4.446;2023-08-21T07:31:22;12.60;;;3.85;;
23782;SDS011;12071;50.850;4.446;2023-08-21T07:33:48;13.68;;;3.70;;
23782;SDS011;12071;50.850;4.446;2023-08-21T07:36:14;13.63;;;3.63;;
23782;SDS011;12071;50.850;4.446;2023-08-21T07:38:45;15.25;;;3.80;;
23782;SDS011;12071;50.850;4.446;2023-08-21T07:41:13;15.70;;;3.97;;
23782;SDS011;12071;50.850;4.446;2023-08-21T07:43:42;12.57;;;3.80;;
23782;SDS011;12071;50.850;4.446;2023-08-21T07:46:09;13.73;;;3.20;;
23782;SDS011;12071;50.850;4.446;2023-08-21T07:48:41;15.20;;;3.90;;
23782;SDS011;12071;50.850;4.446;2023-08-21T07:51:07;11.43;;;3.50;;
23782;SDS011;12071;50.850;4.446;2023-08-21T07:53:33;13.30;;;3.22;;
23782;SDS011;12071;50.850;4.446;2023-08-21T07:56:00;13.48;;;3.78;;
23782;SDS011;12071;50.850;4.446;2023-08-21T07:58:27;16.20;;;3.38;;
23782;SDS011;12071;50.850;4.446;2023-08-21T08:00:53;13.52;;;3.08;;
23782;SDS011;12071;50.850;4.446;2023-08-21T08:03:20;10.43;;;3.10;;
23782;SDS011;12071;50.850;4.446;2023-08-21T08:05:45;11.15;;;3.00;;
23782;SDS011;12071;50.850;4.446;2023-08-21T08:08:14;15.82;;;3.35;;
23782;SDS011;12071;50.850;4.446;2023-08-21T08:10:41;9.95;;;3.10;;
23782;SDS011;12071;50.850;4.446;2023-08-21T08:13:08;13.07;;;3.17;;
23782;SDS011;12071;50.850;4.446;2023-08-21T08:15:35;11.93;;;3.60;;
23782;SDS011;12071;50.850;4.446;2023-08-21T08:18:02;22.70;;;4.10;;
23782;SDS011;12071;50.850;4.446;2023-08-21T08:20:28;13.75;;;3.20;;
23782;SDS011;12071;50.850;4.446;2023-08-21T08:22:55;13.05;;;2.95;;
23782;SDS011;12071;50.850;4.446;2023-08-21T08:25:21;12.57;;;3.10;;
23782;SDS011;12071;50.850;4.446;2023-08-21T08:27:47;18.92;;;3.75;;
23782;SDS011;12071;50.850;4.446;2023-08-21T08:30:13;12.23;;;3.35;;
23782;SDS011;12071;50.850;4.446;2023-08-21T08:32:40;12.32;;;2.65;;
23782;SDS011;12071;50.850;4.446;2023-08-21T08:35:10;8.30;;;2.78;;
23782;SDS011;12071;50.850;4.446;2023-08-21T08:37:40;8.00;;;3.00;;
23782;SDS011;12071;50.850;4.446;2023-08-21T08:40:07;12.85;;;3.10;;
23782;SDS011;12071;50.850;4.446;2023-08-21T08:42:34;8.07;;;2.33;;
23782;SDS011;12071;50.850;4.446;2023-08-21T08:45:01;7.85;;;3.13;;
23782;SDS011;12071;50.850;4.446;2023-08-21T08:47:30;17.17;;;3.08;;
23782;SDS011;12071;50.850;4.446;2023-08-21T08:49:59;10.75;;;2.97;;
23782;SDS011;12071;50.850;4.446;2023-08-21T08:52:26;8.15;;;1.98;;
23782;SDS011;12071;50.850;4.446;2023-08-21T08:54:55;7.70;;;1.50;;
23782;SDS011;12071;50.850;4.446;2023-08-21T08:57:22;6.72;;;1.20;;
23782;SDS011;12071;50.850;4.446;2023-08-21T08:59:48;6.18;;;1.35;;
23782;SDS011;12071;50.850;4.446;2023-08-21T09:02:14;4.90;;;1.40;;
23782;SDS011;12071;50.850;4.446;2023-08-21T09:04:41;8.85;;;1.30;;
23782;SDS011;12071;50.850;4.446;2023-08-21T09:07:07;5.50;;;1.30;;
23782;SDS011;12071;50.850;4.446;2023-08-21T09:09:44;7.55;;;1.50;;
23782;SDS011;12071;50.850;4.446;2023-08-21T09:12:12;5.35;;;1.55;;
23782;SDS011;12071;50.850;4.446;2023-08-21T09:14:39;6.00;;;2.15;;
23782;SDS011;12071;50.850;4.446;2023-08-21T09:17:06;9.60;;;2.00;;
23782;SDS011;12071;50.850;4.446;2023-08-21T09:19:32;7.93;;;1.85;;
23782;SDS011;12071;50.850;4.446;2023-08-21T09:21:58;4.10;;;1.20;;
23782;SDS011;12071;50.850;4.446;2023-08-21T09:24:32;5.45;;;1.83;;
23782;SDS011;12071;50.850;4.446;2023-08-21T09:26:58;6.95;;;1.42;;
23782;SDS011;12071;50.850;4.446;2023-08-21T09:29:26;4.60;;;1.10;;
23782;SDS011;12071;50.850;4.446;2023-08-21T09:32:02;7.68;;;1.08;;
23782;SDS011;12071;50.850;4.446;2023-08-21T09:34:33;7.45;;;1.40;;
23782;SDS011;12071;50.850;4.446;2023-08-21T09:37:05;4.03;;;1.17;;
23782;SDS011;12071;50.850;4.446;2023-08-21T09:39:33;7.22;;;1.42;;
23782;SDS011;12071;50.850;4.446;2023-08-21T09:42:05;15.95;;;1.63;;
23782;SDS011;12071;50.850;4.446;2023-08-21T09:44:39;3.53;;;1.13;;
23782;SDS011;12071;50.850;4.446;2023-08-21T09:47:08;5.75;;;1.60;;
23782;SDS011;12071;50.850;4.446;2023-08-21T09:49:35;7.18;;;1.58;;
23782;SDS011;12071;50.850;4.446;2023-08-21T09:52:04;8.77;;;1.85;;
23782;SDS011;12071;50.850;4.446;2023-08-21T09:54:33;10.23;;;2.20;;
23782;SDS011;12071;50.850;4.446;2023-08-21T09:57:02;5.22;;;1.90;;
23782;SDS011;12071;50.850;4.446;2023-08-21T09:59:29;8.73;;;1.75;;
23782;SDS011;12071;50.850;4.446;2023-08-21T10:01:56;5.55;;;1.40;;
23782;SDS011;12071;50.850;4.446;2023-08-21T10:04:30;6.70;;;1.60;;
23782;SDS011;12071;50.850;4.446;2023-08-21T10:06:57;6.57;;;1.50;;
23782;SDS011;12071;50.850;4.446;2023-08-21T10:09:25;10.32;;;1.73;;
23782;SDS011;12071;50.850;4.446;2023-08-21T10:11:53;7.78;;;1.80;;
23782;SDS011;12071;50.850;4.446;2023-08-21T10:14:20;11.30;;;2.15;;
23782;SDS011;12071;50.850;4.446;2023-08-21T10:16:48;5.85;;;2.10;;
23782;SDS011;12071;50.850;4.446;2023-08-21T10:19:15;6.53;;;2.05;;
23782;SDS011;12071;50.850;4.446;2023-08-21T10:21:46;7.20;;;1.90;;
23782;SDS011;12071;50.850;4.446;2023-08-21T10:24:14;9.50;;;2.10;;
23782;SDS011;12071;50.850;4.446;2023-08-21T10:26:52;6.25;;;1.50;;
23782;SDS011;12071;50.850;4.446;2023-08-21T10:29:18;5.18;;;1.42;;
23782;SDS011;12071;50.850;4.446;2023-08-21T10:31:43;4.25;;;1.35;;
23782;SDS011;12071;50.850;4.446;2023-08-21T10:34:10;5.85;;;1.35;;
23782;SDS011;12071;50.850;4.446;2023-08-21T10:39:14;8.70;;;1.90;;
23782;SDS011;12071;50.850;4.446;2023-08-21T10:41:55;4.55;;;1.63;;
23782;SDS011;12071;50.850;4.446;2023-08-21T10:47:18;7.88;;;2.35;;
23782;SDS011;12071;50.850;4.446;2023-08-21T10:49:53;4.63;;;1.25;;
23782;SDS011;12071;50.850;4.446;2023-08-21T10:52:21;5.28;;;1.30;;
23782;SDS011;12071;50.850;4.446;2023-08-21T10:54:48;5.13;;;1.63;;
23782;SDS011;12071;50.850;4.446;2023-08-21T10:57:18;3.90;;;1.23;;
23782;SDS011;12071;50.850;4.446;2023-08-21T11:02:23;5.82;;;1.52;;
23782;SDS011;12071;50.850;4.446;2023-08-21T11:04:49;4.93;;;1.40;;
23782;SDS011;12071;50.850;4.446;2023-08-21T11:07:17;5.97;;;1.42;;
23782;SDS011;12071;50.850;4.446;2023-08-21T11:09:43;3.05;;;1.00;;
23782;SDS011;12071;50.850;4.446;2023-08-21T11:12:13;4.75;;;1.23;;
23782;SDS011;12071;50.850;4.446;2023-08-21T11:14:41;3.55;;;1.20;;
23782;SDS011;12071;50.850;4.446;2023-08-21T11:17:08;4.78;;;1.20;;
23782;SDS011;12071;50.850;4.446;2023-08-21T11:19:35;4.15;;;1.00;;
23782;SDS011;12071;50.850;4.446;2023-08-21T11:22:01;4.93;;;1.00;;
23782;SDS011;12071;50.850;4.446;2023-08-21T11:27:06;4.70;;;0.90;;
23782;SDS011;12071;50.850;4.446;2023-08-21T11:29:36;5.93;;;1.20;;
23782;SDS011;12071;50.850;4.446;2023-08-21T11:32:14;3.08;;;1.13;;
23782;SDS011;12071;50.850;4.446;2023-08-21T11:37:21;4.32;;;1.00;;
23782;SDS011;12071;50.850;4.446;2023-08-21T11:39:52;5.10;;;1.40;;
23782;SDS011;12071;50.850;4.446;2023-08-21T11:42:28;4.57;;;1.13;;
23782;SDS011;12071;50.850;4.446;2023-08-21T11:44:54;11.07;;;1.83;;
23782;SDS011;12071;50.850;4.446;2023-08-21T11:47:21;5.35;;;1.50;;
23782;SDS011;12071;50.850;4.446;2023-08-21T11:49:48;7.53;;;1.50;;
23782;SDS011;12071;50.850;4.446;2023-08-21T11:52:19;4.82;;;1.40;;
23782;SDS011;12071;50.850;4.446;2023-08-21T11:54:49;4.13;;;1.65;;
23782;SDS011;12071;50.850;4.446;2023-08-21T11:57:16;5.68;;;1.67;;
23782;SDS011;12071;50.850;4.446;2023-08-21T11:59:42;5.82;;;1.50;;
23782;SDS011;12071;50.850;4.446;2023-08-21T12:02:16;5.40;;;1.70;;
23782;SDS011;12071;50.850;4.446;2023-08-21T12:04:42;5.60;;;1.50;;
23782;SDS011;12071;50.850;4.446;2023-08-21T12:07:08;4.93;;;1.50;;
23782;SDS011;12071;50.850;4.446;2023-08-21T12:09:35;6.22;;;1.63;;
23782;SDS011;12071;50.850;4.446;2023-08-21T12:12:01;6.53;;;1.63;;
23782;SDS011;12071;50.850;4.446;2023-08-21T12:14:27;17.45;;;2.10;;
23782;SDS011;12071;50.850;4.446;2023-08-21T12:16:54;9.82;;;2.35;;
23782;SDS011;12071;50.850;4.446;2023-08-21T12:19:21;7.90;;;1.80;;
23782;SDS011;12071;50.850;4.446;2023-08-21T12:21:48;9.02;;;2.00;;
23782;SDS011;12071;50.850;4.446;2023-08-21T12:24:14;6.65;;;1.40;;
23782;SDS011;12071;50.850;4.446;2023-08-21T12:26:39;8.00;;;1.52;;
23782;SDS011;12071;50.850;4.446;2023-08-21T12:29:05;5.70;;;1.58;;
23782;SDS011;12071;50.850;4.446;2023-08-21T12:31:31;7.43;;;1.60;;
23782;SDS011;12071;50.850;4.446;2023-08-21T12:33:56;6.10;;;1.60;;
23782;SDS011;12071;50.850;4.446;2023-08-21T12:36:22;6.07;;;2.05;;
23782;SDS011;12071;50.850;4.446;2023-08-21T12:38:48;3.38;;;1.58;;
23782;SDS011;12071;50.850;4.446;2023-08-21T12:41:14;8.93;;;1.75;;
23782;SDS011;12071;50.850;4.446;2023-08-21T12:43:39;6.95;;;2.00;;
23782;SDS011;12071;50.850;4.446;2023-08-21T12:46:05;4.60;;;1.95;;
23782;SDS011;12071;50.850;4.446;2023-08-21T12:48:31;5.63;;;1.50;;
23782;SDS011;12071;50.850;4.446;2023-08-21T12:50:56;7.05;;;1.73;;
23782;SDS011;12071;50.850;4.446;2023-08-21T12:53:22;5.20;;;1.40;;
23782;SDS011;12071;50.850;4.446;2023-08-21T12:55:48;5.25;;;1.88;;
23782;SDS011;12071;50.850;4.446;2023-08-21T12:58:14;5.20;;;1.73;;
23782;SDS011;12071;50.850;4.446;2023-08-21T13:00:39;3.78;;;1.45;;
23782;SDS011;12071;50.850;4.446;2023-08-21T13:03:05;4.13;;;1.50;;
23782;SDS011;12071;50.850;4.446;2023-08-21T13:05:31;4.95;;;1.70;;
23782;SDS011;12071;50.850;4.446;2023-08-21T13:07:57;5.72;;;1.67;;
23782;SDS011;12071;50.850;4.446;2023-08-21T13:10:22;5.47;;;1.90;;
23782;SDS011;12071;50.850;4.446;2023-08-21T13:12:48;5.65;;;1.50;;
23782;SDS011;12071;50.850;4.446;2023-08-21T13:15:15;5.70;;;1.83;;
23782;SDS011;12071;50.850;4.446;2023-08-21T13:17:40;4.97;;;1.40;;
23782;SDS011;12071;50.850;4.446;2023-08-21T13:20:08;4.68;;;1.65;;
23782;SDS011;12071;50.850;4.446;2023-08-21T13:22:48;7.75;;;1.80;;
23782;SDS011;12071;50.850;4.446;2023-08-21T13:25:16;6.32;;;1.75;;
23782;SDS011;12071;50.850;4.446;2023-08-21T13:27:45;6.68;;;1.85;;
23782;SDS011;12071;50.850;4.446;2023-08-21T13:30:12;5.60;;;1.50;;
23782;SDS011;12071;50.850;4.446;2023-08-21T13:32:38;5.22;;;2.13;;
23782;SDS011;12071;50.850;4.446;2023-08-21T13:35:04;5.63;;;1.77;;
23782;SDS011;12071;50.850;4.446;2023-08-21T13:37:33;5.30;;;1.70;;
23782;SDS011;12071;50.850;4.446;2023-08-21T13:39:58;4.47;;;2.00;;
23782;SDS011;12071;50.850;4.446;2023-08-21T13:42:26;6.93;;;1.88;;
23782;SDS011;12071;50.850;4.446;2023-08-21T13:44:55;7.18;;;1.80;;
23782;SDS011;12071;50.850;4.446;2023-08-21T13:47:22;4.65;;;1.75;;
23782;SDS011;12071;50.850;4.446;2023-08-21T13:49:47;3.63;;;1.60;;
23782;SDS011;12071;50.850;4.446;2023-08-21T13:52:13;5.35;;;1.90;;
23782;SDS011;12071;50.850;4.446;2023-08-21T13:54:39;6.18;;;2.17;;
23782;SDS011;12071;50.850;4.446;2023-08-21T13:57:04;4.40;;;1.60;;
23782;SDS011;12071;50.850;4.446;2023-08-21T13:59:30;3.72;;;1.92;;
23782;SDS011;12071;50.850;4.446;2023-08-21T14:01:56;5.55;;;1.73;;
23782;SDS011;12071;50.850;4.446;2023-08-21T14:04:21;3.78;;;1.60;;
23782;SDS011;12071;50.850;4.446;2023-08-21T14:06:47;3.53;;;1.40;;
23782;SDS011;12071;50.850;4.446;2023-08-21T14:09:13;5.15;;;1.60;;
23782;SDS011;12071;50.850;4.446;2023-08-21T14:11:38;6.78;;;1.50;;
23782;SDS011;12071;50.850;4.446;2023-08-21T14:14:04;5.28;;;1.70;;
23782;SDS011;12071;50.850;4.446;2023-08-21T14:16:29;5.60;;;1.50;;
23782;SDS011;12071;50.850;4.446;2023-08-21T14:18:55;5.30;;;1.38;;
23782;SDS011;12071;50.850;4.446;2023-08-21T14:21:21;6.13;;;1.55;;
23782;SDS011;12071;50.850;4.446;2023-08-21T14:23:46;4.65;;;1.33;;
23782;SDS011;12071;50.850;4.446;2023-08-21T14:26:12;4.28;;;1.30;;
23782;SDS011;12071;50.850;4.446;2023-08-21T14:28:37;4.10;;;1.30;;
23782;SDS011;12071;50.850;4.446;2023-08-21T14:31:03;3.13;;;1.20;;
23782;SDS011;12071;50.850;4.446;2023-08-21T14:33:29;3.20;;;1.30;;
23782;SDS011;12071;50.850;4.446;2023-08-21T14:35:55;4.18;;;1.08;;
23782;SDS011;12071;50.850;4.446;2023-08-21T14:38:21;4.68;;;1.40;;
23782;SDS011;12071;50.850;4.446;2023-08-21T14:40:47;2.47;;;1.15;;
23782;SDS011;12071;50.850;4.446;2023-08-21T14:43:14;3.88;;;1.17;;
23782;SDS011;12071;50.850;4.446;2023-08-21T14:45:40;3.25;;;1.30;;
23782;SDS011;12071;50.850;4.446;2023-08-21T14:48:06;4.65;;;1.20;;
23782;SDS011;12071;50.850;4.446;2023-08-21T14:50:32;3.63;;;0.90;;
23782;SDS011;12071;50.850;4.446;2023-08-21T14:52:58;3.58;;;0.95;;
23782;SDS011;12071;50.850;4.446;2023-08-21T14:55:24;3.50;;;1.10;;
23782;SDS011;12071;50.850;4.446;2023-08-21T14:57:50;2.10;;;0.93;;